Time;durP1;ratioP1;P1;durP2;ratioP2;P2;SDS_P1;SDS_P2;PMS_P1;PMS_P2;Temp;Humidity;BMP_temperature;BMP_pressure;BME280_temperature;BME280_humidity;BME280_pressure;Samples;Min_cycle;Max_cycle;Signal;HPM_P1;HPM_P2
2022/07/31 00:01:07;;;;;;;3.50;2.47;;;19.90;99.90;;;;;;5073527;28;20685;-63
2022/07/31 00:03:33;;;;;;;3.45;2.53;;;19.90;99.90;;;;;;5073470;28;20666;-63
2022/07/31 00:05:59;;;;;;;5.55;2.80;;;19.80;99.90;;;;;;5089697;28;20317;-63
2022/07/31 00:08:25;;;;;;;4.80;2.95;;;19.80;99.90;;;;;;5092249;28;20522;-63
2022/07/31 00:10:51;;;;;;;5.45;2.80;;;19.80;99.90;;;;;;5076906;28;20223;-63
2022/07/31 00:13:16;;;;;;;4.28;2.70;;;19.80;99.90;;;;;;5076189;28;20249;-63
2022/07/31 00:15:42;;;;;;;6.30;2.83;;;19.80;99.90;;;;;;5076013;28;20201;-63
2022/07/31 00:18:08;;;;;;;5.40;2.75;;;19.80;99.90;;;;;;5076555;28;20611;-64
2022/07/31 00:20:34;;;;;;;3.70;2.78;;;19.70;99.90;;;;;;5076194;28;20670;-63
2022/07/31 00:23:00;;;;;;;3.03;2.72;;;19.70;99.90;;;;;;5076181;28;20170;-63
2022/07/31 00:25:26;;;;;;;4.47;3.00;;;19.70;99.90;;;;;;5076164;28;20676;-63
2022/07/31 00:27:52;;;;;;;3.40;2.72;;;19.60;99.90;;;;;;5075712;28;20252;-66
2022/07/31 00:30:18;;;;;;;7.07;3.08;;;19.60;99.90;;;;;;5075909;28;20174;-63
2022/07/31 00:32:44;;;;;;;7.63;3.10;;;19.60;99.90;;;;;;5075938;28;20173;-63
2022/07/31 00:35:12;;;;;;;6.30;2.70;;;19.50;99.90;;;;;;5075633;28;20284;-63
2022/07/31 00:37:39;;;;;;;6.60;3.03;;;19.50;99.90;;;;;;5075840;28;20224;-63
2022/07/31 00:40:06;;;;;;;6.18;2.97;;;19.40;99.90;;;;;;5075684;28;20679;-63
2022/07/31 00:42:33;;;;;;;5.15;2.92;;;19.40;99.90;;;;;;5075649;28;20213;-63
2022/07/31 00:44:58;;;;;;;4.75;3.00;;;19.40;99.90;;;;;;5075596;28;20193;-63
2022/07/31 00:47:24;;;;;;;4.22;3.00;;;19.40;99.90;;;;;;5075699;28;20294;-63
2022/07/31 00:49:50;;;;;;;4.63;2.85;;;19.30;99.90;;;;;;5075496;28;20623;-63
2022/07/31 00:52:16;;;;;;;3.25;2.88;;;19.30;99.90;;;;;;5076047;28;20178;-63
2022/07/31 00:54:41;;;;;;;3.45;2.75;;;19.20;99.90;;;;;;5075411;28;20275;-63
2022/07/31 00:57:07;;;;;;;5.03;3.00;;;19.20;99.90;;;;;;5090658;28;20296;-63
2022/07/31 00:59:33;;;;;;;8.82;2.75;;;19.20;99.90;;;;;;5075201;28;20229;-63
2022/07/31 01:01:59;;;;;;;2.80;2.47;;;19.10;99.90;;;;;;5075234;28;20185;-63
2022/07/31 01:04:25;;;;;;;6.60;2.88;;;19.10;99.90;;;;;;5075103;28;20205;-63
2022/07/31 01:06:52;;;;;;;7.05;3.38;;;19.00;99.90;;;;;;5075567;28;20692;-63
2022/07/31 01:09:18;;;;;;;4.13;2.90;;;19.00;99.90;;;;;;5075153;28;20228;-63
2022/07/31 01:11:49;;;;;;;5.15;3.50;;;18.90;99.90;;;;;;5090667;28;20174;-63
2022/07/31 01:14:16;;;;;;;5.30;3.35;;;18.90;99.90;;;;;;5074738;28;20193;-63
2022/07/31 01:16:48;;;;;;;4.38;2.90;;;18.90;99.90;;;;;;5074543;28;20186;-63
2022/07/31 01:19:22;;;;;;;4.63;3.22;;;18.80;99.90;;;;;;5074556;28;20180;-63
2022/07/31 01:22:15;;;;;;;5.32;3.25;;;18.80;99.90;;;;;;5090581;28;20169;-63
2022/07/31 01:24:53;;;;;;;4.47;3.15;;;18.70;99.90;;;;;;5074814;28;20200;-62
2022/07/31 01:27:46;;;;;;;5.35;3.00;;;18.60;99.90;;;;;;5074614;28;20680;-63
2022/07/31 01:30:12;;;;;;;4.20;2.90;;;18.60;99.90;;;;;;5026404;28;20243;-63
2022/07/31 01:32:45;;;;;;;8.10;3.40;;;18.50;99.90;;;;;;5074769;28;20173;-63
2022/07/31 01:35:15;;;;;;;6.25;3.78;;;18.50;99.90;;;;;;5074468;28;20201;-63
2022/07/31 01:38:09;;;;;;;6.97;3.38;;;18.50;99.90;;;;;;5074598;28;20178;-63
2022/07/31 01:40:43;;;;;;;4.35;3.45;;;18.40;99.90;;;;;;5050845;28;20205;-63
2022/07/31 01:43:18;;;;;;;5.22;3.55;;;18.30;99.90;;;;;;5074218;28;20186;-63
2022/07/31 01:45:50;;;;;;;4.45;3.30;;;18.20;99.90;;;;;;5074609;28;20599;-63
2022/07/31 01:48:16;;;;;;;4.35;3.63;;;18.10;99.90;;;;;;5090076;28;20174;-63
2022/07/31 01:50:46;;;;;;;3.38;3.08;;;18.10;99.90;;;;;;5089773;28;20186;-63
2022/07/31 01:53:14;;;;;;;4.57;3.05;;;18.00;99.90;;;;;;5074601;28;20209;-63
2022/07/31 01:55:42;;;;;;;3.83;3.17;;;18.00;99.90;;;;;;5089763;28;20204;-63
2022/07/31 01:58:09;;;;;;;6.15;3.35;;;17.90;99.90;;;;;;5074109;28;20185;-63
2022/07/31 02:00:36;;;;;;;5.53;3.47;;;17.90;99.90;;;;;;5089702;28;20217;-63
2022/07/31 02:03:05;;;;;;;4.82;3.30;;;17.90;99.90;;;;;;5074365;28;20635;-63
2022/07/31 02:05:34;;;;;;;5.28;3.33;;;17.80;99.90;;;;;;5089552;28;20575;-63
2022/07/31 02:08:02;;;;;;;4.22;3.50;;;17.80;99.90;;;;;;5073986;28;20212;-63
2022/07/31 02:10:30;;;;;;;5.35;3.58;;;17.70;99.90;;;;;;5073908;28;20631;-63
2022/07/31 02:12:57;;;;;;;4.72;3.55;;;17.70;99.90;;;;;;5089429;28;20186;-63
2022/07/31 02:15:24;;;;;;;5.28;3.67;;;17.60;99.90;;;;;;5073926;28;20201;-63
2022/07/31 02:17:51;;;;;;;5.15;3.40;;;17.60;99.90;;;;;;5073848;28;20264;-63
2022/07/31 02:20:18;;;;;;;4.57;3.05;;;17.50;99.90;;;;;;5073695;28;20198;-63
2022/07/31 02:22:44;;;;;;;5.68;3.10;;;17.50;99.90;;;;;;5073829;28;20174;-63
2022/07/31 02:25:10;;;;;;;4.68;3.25;;;17.50;99.90;;;;;;5073669;28;20190;-63
2022/07/31 02:27:38;;;;;;;6.72;3.97;;;17.50;99.90;;;;;;5073488;28;20220;-63
2022/07/31 02:30:04;;;;;;;5.28;3.58;;;17.50;99.90;;;;;;5074030;28;20198;-63
2022/07/31 02:32:32;;;;;;;5.82;3.75;;;17.40;99.90;;;;;;5089203;28;20557;-63
2022/07/31 02:35:00;;;;;;;5.88;3.88;;;17.40;99.90;;;;;;5074064;28;20201;-63
2022/07/31 02:37:28;;;;;;;5.80;3.65;;;17.40;99.90;;;;;;5073606;28;20174;-63
2022/07/31 02:39:55;;;;;;;5.90;3.30;;;17.40;99.90;;;;;;5073454;28;20198;-63
2022/07/31 02:42:21;;;;;;;5.47;3.55;;;17.30;99.90;;;;;;5073758;28;20177;-63
2022/07/31 02:44:48;;;;;;;5.65;3.78;;;17.30;99.90;;;;;;5074098;28;20200;-63
2022/07/31 02:47:14;;;;;;;4.07;3.47;;;17.20;99.90;;;;;;5074417;28;20199;-64
2022/07/31 02:49:41;;;;;;;7.47;3.85;;;17.20;99.90;;;;;;5073668;28;20180;-63
2022/07/31 02:52:07;;;;;;;5.05;4.13;;;17.10;99.90;;;;;;5073793;28;20661;-63
2022/07/31 02:54:38;;;;;;;6.97;3.90;;;17.10;99.90;;;;;;5055458;28;20212;-63
2022/07/31 02:57:04;;;;;;;7.97;4.32;;;17.00;99.90;;;;;;5073413;28;20154;-63
2022/07/31 02:59:30;;;;;;;6.07;3.53;;;16.90;99.90;;;;;;5073043;28;20327;-64
2022/07/31 03:01:57;;;;;;;4.82;3.42;;;16.80;99.90;;;;;;5073382;28;20170;-63
2022/07/31 03:04:23;;;;;;;4.10;3.10;;;16.70;99.90;;;;;;5073229;28;20209;-63
2022/07/31 03:06:49;;;;;;;6.50;3.83;;;16.70;99.90;;;;;;5088915;28;20268;-63
2022/07/31 03:09:15;;;;;;;4.93;3.58;;;16.80;99.90;;;;;;5073978;28;20193;-63
2022/07/31 03:11:41;;;;;;;8.07;3.80;;;16.80;99.90;;;;;;5088862;28;20177;-63
2022/07/31 03:14:10;;;;;;;5.20;4.10;;;16.90;99.90;;;;;;5073151;28;20534;-63
2022/07/31 03:16:38;;;;;;;5.07;3.92;;;16.80;99.90;;;;;;5073283;28;20190;-63
2022/07/31 03:19:04;;;;;;;6.00;3.95;;;16.80;99.90;;;;;;5073279;28;20207;-63
2022/07/31 03:21:31;;;;;;;6.78;4.07;;;16.80;99.90;;;;;;5073671;28;20201;-63
2022/07/31 03:23:59;;;;;;;5.50;4.00;;;16.70;99.90;;;;;;5073012;28;20170;-63
2022/07/31 03:26:25;;;;;;;5.57;4.53;;;16.70;99.90;;;;;;5088626;28;20264;-63
2022/07/31 03:28:52;;;;;;;6.53;3.90;;;16.70;99.90;;;;;;5072833;28;20173;-63
2022/07/31 03:31:18;;;;;;;5.53;4.18;;;16.60;99.90;;;;;;5072996;28;20181;-66
2022/07/31 03:33:44;;;;;;;6.93;4.20;;;16.60;99.90;;;;;;5073023;28;20207;-66
2022/07/31 03:36:10;;;;;;;4.32;3.90;;;16.60;99.90;;;;;;5088448;28;20205;-66
2022/07/31 03:38:36;;;;;;;6.30;4.05;;;16.60;99.90;;;;;;5073069;28;20178;-66
2022/07/31 03:41:01;;;;;;;5.57;4.18;;;16.60;99.90;;;;;;5074241;28;20288;-66
2022/07/31 03:43:31;;;;;;;7.05;3.80;;;16.60;99.90;;;;;;5076604;28;20634;-66
2022/07/31 03:46:01;;;;;;;5.15;3.50;;;16.60;99.90;;;;;;5076787;28;20185;-67
2022/07/31 03:48:30;;;;;;;6.30;3.90;;;16.60;99.90;;;;;;5076978;28;20223;-66
2022/07/31 03:50:57;;;;;;;4.72;3.40;;;16.60;99.90;;;;;;5077147;28;20170;-66
2022/07/31 03:53:23;;;;;;;5.78;3.85;;;16.60;99.90;;;;;;5076867;28;20186;-66
2022/07/31 03:55:50;;;;;;;4.10;3.70;;;16.60;99.90;;;;;;5076489;28;20208;-66
2022/07/31 03:58:18;;;;;;;4.93;4.13;;;16.60;99.90;;;;;;5076411;28;20665;-67
2022/07/31 04:00:44;;;;;;;4.72;3.80;;;16.60;99.90;;;;;;5092095;28;20213;-67
2022/07/31 04:03:12;;;;;;;6.65;3.78;;;16.60;99.90;;;;;;5076702;28;20215;-66
2022/07/31 04:05:39;;;;;;;7.88;4.53;;;16.60;99.90;;;;;;5076264;28;20765;-66
2022/07/31 04:08:06;;;;;;;7.32;3.75;;;16.60;99.90;;;;;;5076356;28;20589;-67
2022/07/31 04:10:32;;;;;;;5.13;4.03;;;16.60;99.90;;;;;;5076368;28;20242;-66
2022/07/31 04:12:57;;;;;;;6.65;3.80;;;16.60;99.90;;;;;;5091697;28;20182;-66
2022/07/31 04:15:23;;;;;;;5.78;4.00;;;16.60;99.90;;;;;;5091627;28;20205;-67
2022/07/31 04:17:49;;;;;;;4.45;3.50;;;16.70;99.90;;;;;;5091730;28;20197;-66
2022/07/31 04:20:15;;;;;;;4.88;4.38;;;16.70;99.90;;;;;;5076372;28;20201;-66
2022/07/31 04:22:41;;;;;;;5.90;4.20;;;16.80;99.90;;;;;;5076604;28;20615;-66
2022/07/31 04:25:07;;;;;;;5.50;4.47;;;16.80;99.90;;;;;;5076266;28;20255;-66
2022/07/31 04:27:36;;;;;;;5.97;4.88;;;16.80;99.90;;;;;;5076294;28;20182;-66
2022/07/31 04:30:03;;;;;;;5.97;4.45;;;16.90;99.90;;;;;;5075919;28;20181;-66
2022/07/31 04:32:29;;;;;;;7.43;4.88;;;16.90;99.90;;;;;;5075964;28;20197;-66
2022/07/31 04:34:54;;;;;;;8.10;4.45;;;16.90;99.90;;;;;;5075699;28;20233;-66
2022/07/31 04:37:20;;;;;;;4.95;4.10;;;16.90;99.90;;;;;;5076153;28;20166;-66
2022/07/31 04:39:46;;;;;;;6.40;4.40;;;16.90;99.90;;;;;;5076659;28;20597;-67
2022/07/31 04:42:12;;;;;;;5.05;4.00;;;16.90;99.90;;;;;;5091395;28;20212;-66
2022/07/31 04:44:38;;;;;;;4.28;3.88;;;16.90;99.90;;;;;;5075588;28;20277;-66
2022/07/31 04:47:05;;;;;;;6.88;4.45;;;16.90;99.90;;;;;;5076271;28;20699;-67
2022/07/31 04:49:32;;;;;;;6.65;4.40;;;16.90;99.90;;;;;;5076294;28;20170;-66
2022/07/31 04:51:59;;;;;;;6.43;4.28;;;16.90;99.90;;;;;;5074812;28;20170;-66
2022/07/31 04:54:25;;;;;;;6.10;4.18;;;16.80;99.90;;;;;;5075165;28;20193;-66
2022/07/31 04:56:50;;;;;;;9.40;4.85;;;16.90;99.90;;;;;;5075566;28;20639;-66
2022/07/31 04:59:19;;;;;;;9.07;4.57;;;16.90;99.90;;;;;;5075218;28;20174;-66
2022/07/31 05:01:46;;;;;;;6.30;4.38;;;17.00;99.90;;;;;;5075595;28;20170;-66
2022/07/31 05:04:12;;;;;;;7.68;4.38;;;17.10;99.90;;;;;;5090696;28;20664;-66
2022/07/31 05:06:39;;;;;;;5.43;3.95;;;17.10;99.90;;;;;;5075878;28;20288;-66
2022/07/31 05:09:07;;;;;;;6.22;4.50;;;17.20;99.90;;;;;;5075606;28;20523;-67
2022/07/31 05:11:33;;;;;;;8.88;4.72;;;17.20;99.90;;;;;;5075178;28;20181;-67
2022/07/31 05:14:02;;;;;;;8.55;4.32;;;17.20;99.90;;;;;;5074716;28;20169;-66
2022/07/31 05:16:29;;;;;;;6.00;4.05;;;17.20;99.90;;;;;;5074948;28;20194;-66
2022/07/31 05:18:56;;;;;;;6.35;4.55;;;17.20;99.90;;;;;;5090724;28;20185;-63
2022/07/31 05:21:23;;;;;;;7.65;4.25;;;17.20;99.90;;;;;;5074839;28;20201;-66
2022/07/31 05:23:50;;;;;;;9.05;4.90;;;17.20;99.90;;;;;;5090672;28;20178;-66
2022/07/31 05:26:17;;;;;;;9.02;4.35;;;17.20;99.90;;;;;;5074781;28;20311;-66
2022/07/31 05:28:43;;;;;;;6.25;4.65;;;17.20;99.90;;;;;;5074745;28;20170;-66
2022/07/31 05:31:09;;;;;;;5.55;4.90;;;17.20;99.90;;;;;;5074861;28;20579;-66
2022/07/31 05:33:35;;;;;;;6.93;4.30;;;17.10;99.90;;;;;;5090319;28;20212;-66
2022/07/31 05:36:02;;;;;;;9.05;4.28;;;17.20;99.90;;;;;;5090241;28;20216;-66
2022/07/31 05:38:28;;;;;;;6.60;4.47;;;17.20;99.90;;;;;;5074489;28;20174;-66
2022/07/31 05:40:54;;;;;;;6.05;4.45;;;17.30;99.90;;;;;;5074558;28;20628;-66
2022/07/31 05:43:20;;;;;;;5.85;4.07;;;17.40;99.90;;;;;;5089879;28;20177;-66
2022/07/31 05:45:46;;;;;;;6.43;4.25;;;17.50;99.90;;;;;;5074271;28;20190;-66
2022/07/31 05:48:13;;;;;;;6.90;4.18;;;17.50;99.90;;;;;;5074779;28;20645;-66
2022/07/31 05:50:42;;;;;;;6.65;4.18;;;17.60;99.90;;;;;;5074660;28;20638;-66
2022/07/31 05:53:13;;;;;;;6.75;4.32;;;17.70;99.90;;;;;;5074312;28;20170;-66
2022/07/31 05:55:43;;;;;;;6.20;4.57;;;17.80;99.90;;;;;;5075149;28;20194;-66
2022/07/31 05:58:10;;;;;;;6.38;4.40;;;17.90;99.90;;;;;;5074680;28;20572;-66
2022/07/31 06:00:37;;;;;;;5.47;4.07;;;18.00;99.90;;;;;;5056240;28;20201;-66
2022/07/31 06:03:04;;;;;;;5.07;3.88;;;18.10;99.90;;;;;;5074273;28;20554;-66
2022/07/31 06:05:30;;;;;;;4.38;3.85;;;18.20;99.90;;;;;;5073887;28;20288;-66
2022/07/31 06:07:57;;;;;;;5.47;3.92;;;18.20;99.90;;;;;;5074088;28;20253;-66
2022/07/31 06:10:23;;;;;;;5.00;3.92;;;18.30;99.90;;;;;;5074246;28;20257;-66
2022/07/31 06:12:49;;;;;;;5.50;4.50;;;18.30;99.90;;;;;;5074060;28;20697;-66
2022/07/31 06:15:15;;;;;;;4.47;3.95;;;18.30;99.90;;;;;;5089312;28;20201;-66
2022/07/31 06:17:42;;;;;;;7.90;4.57;;;18.40;99.90;;;;;;5073946;28;20239;-66
2022/07/31 06:20:08;;;;;;;6.43;4.80;;;18.50;99.90;;;;;;5073806;28;20204;-66
2022/07/31 06:22:34;;;;;;;4.13;3.72;;;18.60;99.90;;;;;;5089537;28;20235;-66
2022/07/31 06:25:00;;;;;;;3.90;3.50;;;18.70;99.90;;;;;;5089395;28;20200;-66
2022/07/31 06:27:26;;;;;;;6.35;3.55;;;18.80;99.90;;;;;;5073745;28;20241;-66
2022/07/31 06:29:52;;;;;;;6.32;3.85;;;18.90;99.90;;;;;;5089216;28;20278;-66
2022/07/31 06:32:19;;;;;;;4.32;3.63;;;19.00;99.90;;;;;;5089402;28;20188;-67
2022/07/31 06:34:45;;;;;;;9.23;4.53;;;19.10;99.90;;;;;;5073856;28;20205;-68
2022/07/31 06:37:11;;;;;;;4.20;3.80;;;19.20;99.90;;;;;;5073829;28;20170;-67
2022/07/31 06:39:36;;;;;;;4.20;3.75;;;19.20;99.90;;;;;;5074217;28;20541;-67
2022/07/31 06:42:02;;;;;;;5.80;3.50;;;19.20;99.90;;;;;;5055825;28;20186;-67
2022/07/31 06:44:29;;;;;;;4.65;3.83;;;19.20;99.90;;;;;;5073990;28;20213;-67
2022/07/31 06:46:55;;;;;;;4.07;3.50;;;19.30;99.90;;;;;;5055885;28;20608;-67
2022/07/31 06:49:21;;;;;;;4.38;3.25;;;19.40;99.90;;;;;;5074493;28;20197;-67
2022/07/31 06:51:47;;;;;;;4.32;3.10;;;19.60;99.90;;;;;;5089692;28;20180;-67
2022/07/31 06:54:13;;;;;;;5.43;3.28;;;19.90;99.90;;;;;;5074378;28;20174;-67
2022/07/31 06:56:39;;;;;;;5.63;3.63;;;20.10;99.90;;;;;;5075005;28;20532;-67
2022/07/31 06:59:06;;;;;;;5.25;3.35;;;20.40;99.90;;;;;;5074401;28;20170;-67
2022/07/31 07:01:32;;;;;;;6.57;3.40;;;20.50;99.90;;;;;;5073561;28;20311;-63
2022/07/31 07:03:58;;;;;;;2.85;2.65;;;20.70;99.90;;;;;;5073383;28;20188;-64
2022/07/31 07:06:25;;;;;;;4.00;3.25;;;20.90;99.90;;;;;;5073871;28;20170;-64
2022/07/31 07:08:51;;;;;;;4.85;3.25;;;21.00;99.90;;;;;;5074015;28;20552;-62
2022/07/31 07:11:18;;;;;;;4.25;2.45;;;21.10;99.90;;;;;;5073299;28;20181;-64
2022/07/31 07:13:44;;;;;;;2.80;2.50;;;21.20;99.90;;;;;;5073046;28;20185;-64
2022/07/31 07:16:10;;;;;;;3.63;2.60;;;21.30;99.90;;;;;;5074655;28;20209;-63
2022/07/31 07:18:36;;;;;;;3.25;2.50;;;21.30;99.90;;;;;;5093048;28;20677;-63
2022/07/31 07:21:03;;;;;;;4.88;2.60;;;21.40;99.90;;;;;;5077168;28;20197;-63
2022/07/31 07:23:29;;;;;;;4.35;2.45;;;21.40;99.90;;;;;;5077390;28;20172;-63
2022/07/31 07:25:55;;;;;;;4.45;2.63;;;21.40;99.90;;;;;;5092878;28;20225;-63
2022/07/31 07:28:21;;;;;;;5.05;2.78;;;21.40;99.90;;;;;;5076850;28;20197;-63
2022/07/31 07:30:47;;;;;;;5.00;3.03;;;21.30;99.90;;;;;;5077400;28;20170;-63
2022/07/31 07:33:12;;;;;;;3.78;2.40;;;21.30;99.90;;;;;;5077608;28;20525;-63
2022/07/31 07:35:38;;;;;;;7.38;2.85;;;21.30;99.90;;;;;;5076874;28;20237;-63
2022/07/31 07:38:04;;;;;;;4.20;2.88;;;21.30;99.90;;;;;;5077025;28;20202;-63
2022/07/31 07:40:30;;;;;;;3.22;2.47;;;21.30;99.90;;;;;;5092370;28;20202;-63
2022/07/31 07:42:57;;;;;;;4.03;2.78;;;21.30;99.90;;;;;;5058770;28;20238;-63
2022/07/31 07:45:23;;;;;;;4.80;2.83;;;21.40;99.90;;;;;;5076578;28;20225;-63
2022/07/31 07:47:49;;;;;;;3.05;2.50;;;21.50;99.90;;;;;;5092734;28;20536;-63
2022/07/31 07:50:15;;;;;;;7.05;2.65;;;21.60;99.90;;;;;;5092486;28;20690;-63
2022/07/31 07:52:41;;;;;;;4.28;2.92;;;21.70;99.90;;;;;;5077081;28;20205;-64
2022/07/31 07:55:08;;;;;;;3.33;2.53;;;21.70;99.90;;;;;;5076676;28;20205;-63
2022/07/31 07:57:35;;;;;;;6.00;2.75;;;21.80;99.90;;;;;;5092058;28;20231;-64
2022/07/31 08:00:04;;;;;;;3.50;2.35;;;21.80;99.90;;;;;;5076233;28;20197;-64
2022/07/31 08:02:30;;;;;;;6.75;2.40;;;21.80;99.90;;;;;;5076899;28;20165;-64
2022/07/31 08:04:56;;;;;;;2.55;2.28;;;21.90;99.90;;;;;;5076189;28;20200;-64
2022/07/31 08:07:34;;;;;;;3.35;2.30;;;21.90;99.90;;;;;;5076767;28;20173;-63
2022/07/31 08:09:59;;;;;;;4.40;2.78;;;22.00;99.90;;;;;;5076488;28;20523;-64
2022/07/31 08:12:26;;;;;;;4.90;2.85;;;22.00;99.90;;;;;;5076472;28;20204;-64
2022/07/31 08:14:52;;;;;;;5.80;3.00;;;22.10;99.90;;;;;;5075859;28;20212;-63
2022/07/31 08:17:18;;;;;;;4.72;3.05;;;22.20;99.90;;;;;;5075890;28;20243;-63
2022/07/31 08:19:44;;;;;;;7.10;3.80;;;22.20;99.90;;;;;;5075947;28;20625;-64
2022/07/31 08:22:10;;;;;;;6.53;3.40;;;22.20;99.90;;;;;;5076503;28;20194;-63
2022/07/31 08:24:36;;;;;;;4.25;3.10;;;22.20;99.90;;;;;;5091567;28;20621;-64
2022/07/31 08:29:46;;;;;;;5.20;3.20;;;22.10;99.90;;;;;;5075906;28;20172;-63
2022/07/31 08:32:12;;;;;;;6.07;3.40;;;22.20;99.90;;;;;;5076084;28;20638;-63
2022/07/31 08:34:38;;;;;;;7.30;3.20;;;22.20;99.90;;;;;;5075907;28;20559;-63
2022/07/31 08:37:05;;;;;;;4.82;2.67;;;22.30;99.90;;;;;;5076602;28;20219;-64
2022/07/31 08:39:35;;;;;;;4.75;3.10;;;22.30;99.90;;;;;;5093936;28;20649;-64
2022/07/31 08:42:08;;;;;;;7.07;4.75;;;22.40;99.90;;;;;;5076578;28;20536;-65
2022/07/31 08:44:41;;;;;;;4.20;3.03;;;22.40;99.90;;;;;;5075919;28;20201;-65
2022/07/31 08:47:08;;;;;;;7.13;2.80;;;22.40;99.90;;;;;;5075954;28;20170;-65
2022/07/31 08:49:40;;;;;;;6.28;2.75;;;22.40;99.90;;;;;;5075853;28;20200;-66
2022/07/31 08:52:20;;;;;;;4.45;2.92;;;22.30;99.90;;;;;;5075754;28;20166;-65
2022/07/31 08:54:51;;;;;;;4.57;2.92;;;22.30;99.90;;;;;;5075502;28;20201;-65
2022/07/31 08:57:18;;;;;;;3.55;2.67;;;22.30;99.90;;;;;;5075760;28;20169;-65
2022/07/31 08:59:44;;;;;;;4.68;3.10;;;22.30;99.90;;;;;;5075076;28;20176;-65
2022/07/31 09:02:10;;;;;;;4.60;2.85;;;22.10;99.90;;;;;;5075999;28;20516;-65
2022/07/31 09:04:37;;;;;;;6.63;3.03;;;22.10;99.90;;;;;;5075456;28;20194;-65
2022/07/31 09:07:03;;;;;;;4.90;2.75;;;22.10;99.90;;;;;;5075943;28;20190;-65
2022/07/31 09:09:30;;;;;;;4.28;3.05;;;22.00;99.90;;;;;;5076126;28;20678;-65
2022/07/31 09:11:56;;;;;;;6.97;3.38;;;21.90;99.90;;;;;;5076222;28;20561;-65
2022/07/31 09:14:30;;;;;;;3.38;2.70;;;21.80;99.90;;;;;;5075570;28;20190;-65
2022/07/31 09:16:57;;;;;;;4.00;2.80;;;21.80;99.90;;;;;;5075441;28;20553;-72
2022/07/31 09:19:34;;;;;;;4.72;3.05;;;21.90;99.90;;;;;;5076912;28;20174;-67
2022/07/31 09:22:00;;;;;;;4.68;3.10;;;21.90;99.90;;;;;;5091339;28;20180;-65
2022/07/31 09:24:29;;;;;;;4.70;3.00;;;21.90;99.90;;;;;;5075613;28;20186;-79
2022/07/31 09:27:09;;;;;;;6.00;3.03;;;21.90;99.90;;;;;;5075921;28;20165;-63
2022/07/31 09:29:37;;;;;;;3.13;2.72;;;21.90;99.90;;;;;;5090658;28;20705;-68
2022/07/31 09:32:13;;;;;;;4.82;2.50;;;21.80;99.90;;;;;;5090739;28;20185;-64
2022/07/31 09:34:39;;;;;;;5.30;3.20;;;21.70;99.90;;;;;;5075323;28;20250;-63
2022/07/31 09:37:16;;;;;;;4.22;3.05;;;21.70;99.90;;;;;;5074799;28;20300;-64
2022/07/31 09:39:50;;;;;;;4.70;3.10;;;21.80;99.90;;;;;;5089879;28;20162;-63
2022/07/31 09:42:16;;;;;;;6.88;2.97;;;21.90;99.90;;;;;;5075132;28;20150;-64
2022/07/31 09:44:44;;;;;;;6.13;2.92;;;22.00;99.90;;;;;;5074588;28;20212;-63
2022/07/31 09:47:27;;;;;;;4.82;3.03;;;22.00;99.90;;;;;;5074683;28;20170;-64
2022/07/31 09:49:58;;;;;;;7.85;3.58;;;21.90;99.90;;;;;;5074913;28;20166;-62
2022/07/31 09:52:25;;;;;;;4.55;3.28;;;21.80;99.90;;;;;;5075525;28;20166;-63
2022/07/31 09:55:11;;;;;;;6.00;2.92;;;21.90;99.90;;;;;;5074985;28;20198;-63
2022/07/31 09:57:38;;;;;;;5.82;3.30;;;21.90;99.90;;;;;;5096364;28;20532;-67
2022/07/31 10:00:08;;;;;;;3.83;2.97;;;21.90;99.90;;;;;;5089515;28;20265;-67
2022/07/31 10:02:37;;;;;;;5.10;2.92;;;21.90;99.90;;;;;;5089708;28;20234;-68
2022/07/31 10:05:05;;;;;;;3.78;2.78;;;22.00;99.90;;;;;;5069117;28;20202;-68
2022/07/31 10:07:35;;;;;;;5.55;3.10;;;22.00;99.90;;;;;;5074741;28;20189;-66
2022/07/31 10:10:02;;;;;;;5.07;3.03;;;22.10;99.90;;;;;;5075573;28;20177;-65
2022/07/31 10:12:32;;;;;;;4.82;3.30;;;22.10;99.90;;;;;;5073785;28;20181;-66
2022/07/31 10:15:08;;;;;;;5.90;3.00;;;22.10;99.90;;;;;;5064989;28;20248;-65
2022/07/31 10:17:39;;;;;;;4.38;3.00;;;22.20;99.90;;;;;;5062277;28;20193;-65
2022/07/31 10:20:07;;;;;;;6.70;3.00;;;22.10;99.90;;;;;;5062846;28;20690;-66
2022/07/31 10:23:05;;;;;;;3.55;2.95;;;22.10;99.90;;;;;;5057052;28;20178;-67
2022/07/31 10:25:34;;;;;;;5.45;2.70;;;22.00;99.90;;;;;;5054801;28;20192;-67
2022/07/31 10:28:02;;;;;;;3.85;3.00;;;22.00;99.90;;;;;;5057847;28;20151;-67
2022/07/31 10:30:28;;;;;;;3.83;2.78;;;22.10;99.90;;;;;;5042889;28;20178;-66
2022/07/31 10:32:55;;;;;;;4.50;3.03;;;22.10;99.90;;;;;;5057253;28;20163;-66
2022/07/31 10:35:21;;;;;;;6.88;3.30;;;22.10;99.90;;;;;;5069882;28;20208;-73
2022/07/31 10:38:03;;;;;;;4.57;2.53;;;22.20;99.90;;;;;;5076985;28;20174;-72
2022/07/31 10:40:42;;;;;;;9.60;3.20;;;22.30;99.90;;;;;;5091017;28;20312;-66
2022/07/31 10:43:24;;;;;;;4.53;2.92;;;22.40;99.90;;;;;;5076695;28;20161;-66
2022/07/31 10:45:52;;;;;;;4.38;3.28;;;22.50;99.90;;;;;;5090458;28;20737;-66
2022/07/31 10:48:18;;;;;;;4.93;3.00;;;22.60;99.90;;;;;;5074148;28;20253;-66
2022/07/31 10:50:45;;;;;;;5.22;3.38;;;22.60;99.90;;;;;;5073369;28;20527;-66
2022/07/31 10:53:16;;;;;;;7.00;3.35;;;22.60;99.90;;;;;;5074166;28;20253;-66
2022/07/31 10:55:42;;;;;;;4.63;3.00;;;22.50;99.90;;;;;;5089736;28;20197;-66
2022/07/31 10:58:14;;;;;;;4.72;2.65;;;22.50;99.90;;;;;;5073845;28;20230;-69
2022/07/31 11:00:40;;;;;;;3.80;2.78;;;22.50;99.90;;;;;;5073758;28;20190;-67
2022/07/31 11:03:20;;;;;;;5.15;3.00;;;22.50;99.90;;;;;;5073904;28;20256;-68
2022/07/31 11:05:54;;;;;;;4.47;2.92;;;22.60;99.90;;;;;;5056215;28;20189;-68
2022/07/31 11:08:20;;;;;;;3.65;2.40;;;22.60;99.90;;;;;;5035772;28;20746;-68
2022/07/31 11:10:56;;;;;;;6.55;3.13;;;22.70;99.90;;;;;;5053815;28;20170;-68
2022/07/31 11:13:24;;;;;;;4.90;2.63;;;22.80;99.90;;;;;;5053798;28;20162;-68
2022/07/31 11:15:53;;;;;;;4.50;3.03;;;23.00;99.90;;;;;;5035271;28;20216;-69
2022/07/31 11:18:23;;;;;;;4.55;2.60;;;23.20;99.90;;;;;;5036057;28;20180;-70
2022/07/31 11:21:00;;;;;;;3.85;2.47;;;23.40;99.90;;;;;;5035701;28;20194;-69
2022/07/31 11:23:29;;;;;;;6.72;3.00;;;23.40;99.90;;;;;;5052381;28;20181;-69
2022/07/31 11:25:59;;;;;;;4.93;3.00;;;23.30;99.90;;;;;;5069030;28;20194;-69
2022/07/31 11:28:25;;;;;;;6.00;2.58;;;23.30;99.90;;;;;;5053616;28;20185;-68
2022/07/31 11:30:55;;;;;;;4.40;2.67;;;23.20;99.90;;;;;;5068684;28;20187;-69
2022/07/31 11:33:35;;;;;;;6.10;2.80;;;23.20;99.90;;;;;;5053620;28;20624;-72
2022/07/31 11:36:23;;;;;;;4.30;2.70;;;23.20;99.90;;;;;;5072430;28;20267;-64
2022/07/31 11:38:56;;;;;;;4.03;2.47;;;23.20;99.90;;;;;;5072917;28;20646;-65
2022/07/31 11:41:27;;;;;;;3.72;2.63;;;23.30;99.90;;;;;;5073734;28;20194;-67
2022/07/31 11:43:56;;;;;;;3.78;2.78;;;23.30;99.90;;;;;;5073986;28;20166;-63
2022/07/31 11:46:26;;;;;;;4.60;2.88;;;23.40;99.90;;;;;;5074325;28;20513;-67
2022/07/31 11:48:53;;;;;;;4.22;2.85;;;23.70;99.90;;;;;;5073023;28;20177;-67
2022/07/31 11:51:20;;;;;;;3.90;2.83;;;24.00;99.90;;;;;;5089251;28;20589;-67
2022/07/31 11:53:46;;;;;;;5.25;2.60;;;24.00;99.90;;;;;;5088458;28;20615;-66
2022/07/31 11:56:15;;;;;;;5.20;2.90;;;24.30;99.90;;;;;;5072813;28;20186;-66
2022/07/31 11:58:51;;;;;;;4.07;3.20;;;24.30;99.90;;;;;;5072723;28;20178;-66
2022/07/31 12:01:18;;;;;;;5.07;2.60;;;24.30;99.90;;;;;;5072530;28;20281;-66
2022/07/31 12:03:45;;;;;;;4.65;2.50;;;24.20;99.90;;;;;;5077181;28;20158;-70
2022/07/31 12:06:11;;;;;;;6.25;2.90;;;24.30;99.90;;;;;;5076855;28;20224;-71
2022/07/31 12:08:38;;;;;;;4.20;2.75;;;24.30;99.90;;;;;;5076470;28;20174;-70
2022/07/31 12:11:06;;;;;;;9.13;2.80;;;24.10;99.90;;;;;;5092366;28;20178;-69
2022/07/31 12:13:32;;;;;;;4.55;3.13;;;24.00;99.90;;;;;;5077314;28;20158;-66
2022/07/31 12:16:06;;;;;;;6.47;2.92;;;24.00;99.90;;;;;;5091634;28;20677;-66
2022/07/31 12:18:45;;;;;;;3.78;2.53;;;24.10;99.90;;;;;;5076670;28;20657;-65
2022/07/31 12:21:11;;;;;;;5.70;2.95;;;24.20;99.90;;;;;;5091890;28;20231;-66
2022/07/31 12:23:41;;;;;;;7.38;3.08;;;24.50;99.90;;;;;;5076825;28;20182;-67
2022/07/31 12:26:12;;;;;;;8.82;4.10;;;24.60;99.90;;;;;;5076251;28;20197;-67
2022/07/31 12:28:38;;;;;;;5.32;3.40;;;24.40;99.90;;;;;;5076521;28;20510;-67
2022/07/31 12:31:04;;;;;;;3.78;2.72;;;24.20;99.90;;;;;;5077088;28;20158;-68
2022/07/31 12:33:41;;;;;;;7.82;2.90;;;24.30;99.90;;;;;;5077771;28;20215;-67
2022/07/31 12:36:15;;;;;;;4.70;2.75;;;24.30;99.90;;;;;;5071554;22;20617;-86
2022/07/31 12:38:40;;;;;;;4.53;3.03;;;24.20;99.90;;;;;;5058214;28;20251;-82
2022/07/31 12:41:07;;;;;;;5.05;2.90;;;24.20;99.90;;;;;;5057196;28;20214;-83
2022/07/31 12:43:32;;;;;;;6.25;2.60;;;24.00;99.90;;;;;;5057254;28;20175;-82
2022/07/31 12:46:03;;;;;;;4.72;3.00;;;23.90;99.90;;;;;;5057923;28;20228;-83
2022/07/31 12:48:32;;;;;;;7.00;3.22;;;23.80;99.90;;;;;;5058445;28;20186;-84
2022/07/31 12:50:59;;;;;;;4.28;2.60;;;23.60;99.90;;;;;;5058455;28;20183;-82
2022/07/31 12:53:28;;;;;;;8.55;3.50;;;23.40;99.90;;;;;;5057986;28;20694;-83
2022/07/31 12:55:54;;;;;;;3.47;2.72;;;23.10;99.90;;;;;;5057008;28;20199;-84